Terminal Aerodrome Forecast
Issued by NWS Louisville, KY

Home | Current Version | Previous Version | Text Only | Print | Product List | Glossary On
Versions: 1 2 3 4 5 6 7 8 9 10 11 12 13 14 15 16 17
000
FTUS43 KLMK 251700
TAFBWG
TAF
KBWG 251722Z 2518/2618 22009KT P6SM BKN029
     FM251900 21009KT P6SM SKC
     FM260000 VRB03KT P6SM SKC
     FM261400 19008KT P6SM FEW250=

USA.gov is the U.S. government's official web portal to all federal, state and local government web resources and services.